Time;durP1;ratioP1;P1;durP2;ratioP2;P2;SDS_P1;SDS_P2;PMS_P1;PMS_P2;Temp;Humidity;BMP_temperature;BMP_pressure;BME280_temperature;BME280_humidity;BME280_pressure;Samples;Min_cycle;Max_cycle;Signal;HPM_P1;HPM_P2
2021/05/07 00:02:19;;;;;;;3.83;0.57;;;;;;;-148.56;100.00;61375.16;4996741;28;20045;-29
2021/05/07 00:05:46;;;;;;;11.85;0.50;;;;;;;-148.56;100.00;61375.16;4989864;28;21793;-32
2021/05/07 00:09:10;;;;;;;1.88;0.35;;;;;;;-148.56;100.00;61375.16;5013784;28;20045;-29
2021/05/07 00:12:34;;;;;;;0.45;0.20;;;;;;;-148.56;100.00;61375.16;4989175;28;20029;-30
2021/05/07 00:15:58;;;;;;;0.25;0.20;;;;;;;-148.56;100.00;61375.16;5010103;28;20574;-27
2021/05/07 00:19:22;;;;;;;3.22;0.30;;;;;;;-148.56;100.00;61375.16;4992569;28;20068;-31
2021/05/07 00:22:46;;;;;;;2.38;0.50;;;;;;;-148.56;100.00;61375.16;5010067;28;20617;-30
2021/05/07 00:26:12;;;;;;;1.20;0.60;;;;;;;-148.56;100.00;61375.16;4978610;28;20037;-31
2021/05/07 00:29:36;;;;;;;3.33;0.20;;;;;;;-148.56;100.00;61375.16;5004741;28;20555;-29
2021/05/07 00:33:00;;;;;;;0.52;0.30;;;;;;;-148.56;100.00;61375.16;4998853;28;20053;-31
2021/05/07 00:36:24;;;;;;;0.52;0.22;;;;;;;-148.56;100.00;61375.16;4994402;28;20036;-28
2021/05/07 00:39:48;;;;;;;0.65;0.40;;;;;;;-148.56;100.00;61375.16;4999702;28;20101;-32
2021/05/07 00:43:11;;;;;;;0.80;0.30;;;;;;;-148.56;100.00;61375.16;5013986;28;20144;-33
2021/05/07 00:46:37;;;;;;;1.60;0.40;;;;;;;-148.56;100.00;61375.16;5005758;28;20029;-29
2021/05/07 00:50:01;;;;;;;2.35;0.50;;;;;;;-148.56;100.00;61375.16;5011394;28;20025;-31
2021/05/07 00:53:28;;;;;;;1.15;0.28;;;;;;;-148.56;100.00;61375.16;4983116;28;20022;-29
2021/05/07 00:56:52;;;;;;;1.00;0.30;;;;;;;-148.56;100.00;61375.16;4998471;28;20121;-31
2021/05/07 01:00:16;;;;;;;1.33;0.60;;;;;;;-148.56;100.00;61375.16;5007489;28;20057;-29
2021/05/07 01:03:40;;;;;;;2.08;0.47;;;;;;;-148.56;100.00;61375.16;5009367;28;20164;-32
2021/05/07 01:07:03;;;;;;;1.75;0.43;;;;;;;-148.56;100.00;61375.16;5015200;28;20049;-32
2021/05/07 01:10:27;;;;;;;0.95;0.35;;;;;;;-148.56;100.00;61375.16;5011431;28;20040;-29
2021/05/07 01:13:51;;;;;;;1.35;0.40;;;;;;;-148.56;100.00;61375.16;5001411;28;20029;-27
2021/05/07 01:17:15;;;;;;;3.00;0.40;;;;;;;-148.56;100.00;61375.16;5008493;28;20541;-29
2021/05/07 01:20:39;;;;;;;4.80;0.50;;;;;;;-148.56;100.00;61375.16;5003305;28;20475;-31
2021/05/07 01:24:07;;;;;;;0.68;0.30;;;;;;;-148.56;100.00;61375.16;5009978;28;20248;-31
2021/05/07 01:27:38;;;;;;;0.60;0.35;;;;;;;-148.56;100.00;61375.16;4993662;28;20033;-31
2021/05/07 01:31:13;;;;;;;1.75;0.30;;;;;;;-148.56;100.00;61375.16;5006237;28;20060;-28
2021/05/07 01:34:36;;;;;;;0.28;0.20;;;;;;;-148.56;100.00;61375.16;5014313;28;20038;-28
2021/05/07 01:38:01;;;;;;;0.55;0.40;;;;;;;-148.56;100.00;61375.16;5016423;28;20121;-31
2021/05/07 01:41:26;;;;;;;1.20;0.20;;;;;;;-148.56;100.00;61375.16;5010935;28;20029;-30
2021/05/07 01:44:49;;;;;;;1.17;0.30;;;;;;;-148.56;100.00;61375.16;5009303;28;20041;-30
2021/05/07 01:48:14;;;;;;;0.55;0.20;;;;;;;-148.56;100.00;61375.16;5014401;28;20044;-28
2021/05/07 01:51:39;;;;;;;0.38;0.22;;;;;;;-148.56;100.00;61375.16;4987985;28;20546;-32
2021/05/07 01:55:06;;;;;;;0.75;0.30;;;;;;;-148.56;100.00;61375.16;5008967;28;20040;-29
2021/05/07 01:58:29;;;;;;;0.80;0.32;;;;;;;-148.56;100.00;61375.16;5006520;28;20038;-28
2021/05/07 02:01:53;;;;;;;0.22;0.20;;;;;;;-148.56;100.00;61375.16;4994104;28;20639;-31
2021/05/07 02:05:20;;;;;;;1.20;0.20;;;;;;;-148.56;100.00;61375.16;5009229;28;20662;-31
2021/05/07 02:08:44;;;;;;;0.73;0.17;;;;;;;-148.56;100.00;61375.16;4996399;28;20127;-32
2021/05/07 02:12:08;;;;;;;0.30;0.10;;;;;;;-148.56;100.00;61375.16;4997679;28;20110;-30
2021/05/07 02:15:34;;;;;;;1.92;0.20;;;;;;;-148.56;100.00;61375.16;5010467;28;20108;-32
2021/05/07 02:18:58;;;;;;;1.95;0.20;;;;;;;-148.56;100.00;61375.16;5013270;28;20025;-29
2021/05/07 02:22:22;;;;;;;1.35;0.38;;;;;;;-148.56;100.00;61375.16;5004468;28;20095;-30
2021/05/07 02:25:46;;;;;;;0.22;0.10;;;;;;;-148.56;100.00;61375.16;5009401;28;20036;-29
2021/05/07 02:29:10;;;;;;;2.05;0.40;;;;;;;-148.56;100.00;61375.16;5010243;28;20032;-31
2021/05/07 02:32:34;;;;;;;0.45;0.20;;;;;;;-148.56;100.00;61375.16;5012358;28;20044;-27
2021/05/07 02:35:58;;;;;;;0.50;0.22;;;;;;;-148.56;100.00;61375.16;5018899;28;20029;-31
2021/05/07 02:39:22;;;;;;;1.17;0.47;;;;;;;-148.56;100.00;61375.16;5012246;28;20025;-31
2021/05/07 02:42:45;;;;;;;0.88;0.28;;;;;;;-148.56;100.00;61375.16;5005968;28;20038;-29
2021/05/07 02:46:10;;;;;;;0.85;0.30;;;;;;;-148.56;100.00;61375.16;5006433;28;20072;-30
2021/05/07 02:49:34;;;;;;;0.90;0.32;;;;;;;-148.56;100.00;61375.16;5009348;28;20025;-29
2021/05/07 02:52:58;;;;;;;4.47;0.47;;;;;;;-148.56;100.00;61375.16;5016933;28;20083;-33
2021/05/07 02:56:22;;;;;;;0.85;0.20;;;;;;;-148.56;100.00;61375.16;5012979;28;20029;-30
2021/05/07 02:59:46;;;;;;;4.07;0.22;;;;;;;-148.56;100.00;61375.16;5002851;28;20140;-32
2021/05/07 03:03:09;;;;;;;2.88;0.22;;;;;;;-148.56;100.00;61375.16;5004540;28;20179;-30
2021/05/07 03:06:33;;;;;;;0.68;0.28;;;;;;;-148.56;100.00;61375.16;5002169;28;20029;-31
2021/05/07 03:09:57;;;;;;;0.47;0.30;;;;;;;-148.56;100.00;61375.16;4996805;28;20659;-32
2021/05/07 03:13:21;;;;;;;0.52;0.20;;;;;;;-148.56;100.00;61375.16;4997430;28;20470;-30
2021/05/07 03:16:45;;;;;;;1.70;0.20;;;;;;;-148.56;100.00;61375.16;5011306;28;20029;-29
2021/05/07 03:20:09;;;;;;;4.03;0.28;;;;;;;-148.56;100.00;61375.16;4996923;28;20025;-29
2021/05/07 03:23:33;;;;;;;0.30;0.13;;;;;;;-148.56;100.00;61375.16;5014372;28;20033;-28
2021/05/07 03:26:57;;;;;;;0.45;0.32;;;;;;;-148.56;100.00;61375.16;5004097;28;22960;-31
2021/05/07 03:30:21;;;;;;;0.95;0.10;;;;;;;-148.56;100.00;61375.16;5009122;28;20120;-37
2021/05/07 03:33:45;;;;;;;1.33;0.30;;;;;;;-148.56;100.00;61375.16;5013396;28;20048;-29
2021/05/07 03:37:09;;;;;;;1.08;0.38;;;;;;;-148.56;100.00;61375.16;5008479;28;20040;-34
2021/05/07 03:40:33;;;;;;;0.35;0.22;;;;;;;-148.56;100.00;61375.16;4991646;28;20680;-29
2021/05/07 03:43:57;;;;;;;0.47;0.20;;;;;;;-148.56;100.00;61375.16;4993611;28;20040;-29
2021/05/07 03:47:21;;;;;;;0.55;0.20;;;;;;;-148.56;100.00;61375.16;4999845;28;20055;-31
2021/05/07 03:50:45;;;;;;;0.22;0.10;;;;;;;-148.56;100.00;61375.16;5004616;28;20220;-28
2021/05/07 03:54:12;;;;;;;0.73;0.30;;;;;;;-148.56;100.00;61375.16;5011221;28;20953;-31
2021/05/07 03:57:36;;;;;;;0.30;0.10;;;;;;;-148.56;100.00;61375.16;5015201;28;20033;-32
2021/05/07 04:01:01;;;;;;;0.70;0.20;;;;;;;-148.56;100.00;61375.16;5011759;28;20029;-34
2021/05/07 04:04:25;;;;;;;0.13;0.10;;;;;;;-148.56;100.00;61375.16;5010511;28;20045;-27
2021/05/07 04:08:01;;;;;;;2.55;0.20;;;;;;;-148.56;100.00;61375.16;5016793;28;20037;-30
2021/05/07 04:11:33;;;;;;;1.48;0.20;;;;;;;-148.56;100.00;61375.16;5018402;28;20025;-27
2021/05/07 04:14:56;;;;;;;1.23;0.30;;;;;;;-148.56;100.00;61375.16;5003825;28;20060;-29
2021/05/07 04:18:20;;;;;;;4.22;0.30;;;;;;;-148.56;100.00;61375.16;5005585;28;20036;-32
2021/05/07 04:21:44;;;;;;;2.15;0.30;;;;;;;-148.56;100.00;61375.16;5013432;28;20107;-29
2021/05/07 04:25:08;;;;;;;0.82;0.30;;;;;;;-148.56;100.00;61375.16;5016155;28;20051;-26
2021/05/07 04:28:32;;;;;;;1.38;0.25;;;;;;;-148.56;100.00;61375.16;4991030;28;20029;-29
2021/05/07 04:31:58;;;;;;;2.83;0.30;;;;;;;-148.56;100.00;61375.16;5011107;28;20086;-30
2021/05/07 04:35:22;;;;;;;1.48;0.30;;;;;;;-148.56;100.00;61375.16;5010352;28;20035;-30
2021/05/07 04:38:47;;;;;;;0.55;0.30;;;;;;;-148.56;100.00;61375.16;5014237;28;20679;-28
2021/05/07 04:42:10;;;;;;;0.77;0.20;;;;;;;-148.56;100.00;61375.16;5010820;28;20083;-29
2021/05/07 04:45:34;;;;;;;0.45;0.28;;;;;;;-148.56;100.00;61375.16;5003467;28;20032;-31
2021/05/07 04:48:58;;;;;;;0.65;0.20;;;;;;;-148.56;100.00;61375.16;5015795;28;20038;-28
2021/05/07 04:52:23;;;;;;;0.20;0.10;;;;;;;-148.56;100.00;61375.16;5017453;28;20033;-29
2021/05/07 04:55:47;;;;;;;0.68;0.20;;;;;;;-148.56;100.00;61375.16;5002749;28;20037;-31
2021/05/07 04:59:11;;;;;;;2.28;0.20;;;;;;;-148.56;100.00;61375.16;5007214;28;20021;-29
2021/05/07 05:02:35;;;;;;;1.75;0.10;;;;;;;-148.56;100.00;61375.16;5005597;28;20045;-28
2021/05/07 05:05:59;;;;;;;3.72;0.40;;;;;;;-148.56;100.00;61375.16;5014004;28;20037;-29
2021/05/07 05:09:23;;;;;;;0.30;0.10;;;;;;;-148.56;100.00;61375.16;5013598;28;20226;-28
2021/05/07 05:12:47;;;;;;;0.65;0.40;;;;;;;-148.56;100.00;61375.16;5006140;28;20025;-27
2021/05/07 05:16:11;;;;;;;0.90;0.30;;;;;;;-148.56;100.00;61375.16;5004773;28;20877;-29
2021/05/07 05:19:35;;;;;;;1.10;0.15;;;;;;;-148.56;100.00;61375.16;5007218;28;20740;-34
2021/05/07 05:22:59;;;;;;;0.55;0.10;;;;;;;-148.56;100.00;61375.16;5005600;28;20036;-31
2021/05/07 05:26:23;;;;;;;0.35;0.15;;;;;;;-148.56;100.00;61375.16;5018441;28;20144;-29
2021/05/07 05:29:46;;;;;;;0.32;0.10;;;;;;;-148.56;100.00;61375.16;5007357;28;20117;-30
2021/05/07 05:33:10;;;;;;;0.15;0.10;;;;;;;-148.56;100.00;61375.16;5009652;28;20079;-31
2021/05/07 05:36:34;;;;;;;0.00;0.00;;;;;;;-148.56;100.00;61375.16;5012563;28;20037;-29
2021/05/07 05:39:58;;;;;;;0.82;0.20;;;;;;;-148.56;100.00;61375.16;5011359;28;20043;-28
2021/05/07 05:43:24;;;;;;;0.10;0.10;;;;;;;-148.56;100.00;61375.16;5007416;28;20032;-32
2021/05/07 05:46:48;;;;;;;1.45;0.15;;;;;;;-148.56;100.00;61375.16;5004090;28;20095;-31
2021/05/07 05:50:12;;;;;;;0.10;0.10;;;;;;;-148.56;100.00;61375.16;5009347;28;20033;-28
2021/05/07 05:53:36;;;;;;;0.50;0.10;;;;;;;-148.56;100.00;61375.16;5014221;28;20098;-32
2021/05/07 05:57:00;;;;;;;0.20;0.20;;;;;;;-148.56;100.00;61375.16;5016730;28;20022;-27
2021/05/07 06:00:24;;;;;;;0.98;0.20;;;;;;;-148.56;100.00;61375.16;5018682;28;20171;-29
2021/05/07 06:03:48;;;;;;;0.40;0.10;;;;;;;-148.56;100.00;61375.16;4993903;28;20041;-30
2021/05/07 06:07:12;;;;;;;0.40;0.13;;;;;;;-148.56;100.00;61375.16;5009284;28;20033;-27
2021/05/07 06:10:37;;;;;;;1.70;0.20;;;;;;;-148.56;100.00;61375.16;5000175;28;20033;-30
2021/05/07 06:14:01;;;;;;;0.93;0.20;;;;;;;-148.56;100.00;61375.16;5011576;28;20322;-31
2021/05/07 06:17:26;;;;;;;0.10;0.10;;;;;;;-148.56;100.00;61375.16;5002922;28;20021;-29
2021/05/07 06:20:50;;;;;;;0.43;0.20;;;;;;;-148.56;100.00;61375.16;5013635;28;20036;-32
2021/05/07 06:24:14;;;;;;;0.10;0.10;;;;;;;-148.56;100.00;61375.16;5016080;28;20057;-30
2021/05/07 06:27:38;;;;;;;0.63;0.20;;;;;;;-148.56;100.00;61375.16;5001464;28;20071;-31
2021/05/07 06:31:05;;;;;;;0.25;0.17;;;;;;;-148.56;100.00;61375.16;5008899;28;20184;-29
2021/05/07 06:34:29;;;;;;;0.30;0.20;;;;;;;-148.56;100.00;61375.16;5004160;28;20500;-30
2021/05/07 06:37:53;;;;;;;1.55;0.25;;;;;;;-148.56;100.00;61375.16;5012125;28;20040;-29
2021/05/07 06:41:18;;;;;;;12.20;0.60;;;;;;;-148.56;100.00;61375.16;4995944;28;20112;-33
2021/05/07 06:44:42;;;;;;;1.05;0.50;;;;;;;-148.56;100.00;61375.16;5000876;28;20029;-27
2021/05/07 06:48:06;;;;;;;4.63;0.40;;;;;;;-148.56;100.00;61375.16;5000985;28;20026;-29
2021/05/07 06:51:30;;;;;;;1.05;0.35;;;;;;;-148.56;100.00;61375.16;5012313;28;20029;-29
2021/05/07 06:54:54;;;;;;;8.05;0.55;;;;;;;-148.56;100.00;61375.16;5000902;28;20090;-28
2021/05/07 06:58:18;;;;;;;2.03;0.70;;;;;;;-148.56;100.00;61375.16;4997119;28;20136;-28
2021/05/07 07:01:42;;;;;;;2.35;0.45;;;;;;;-148.56;100.00;61375.16;4983278;28;20068;-29
2021/05/07 07:05:06;;;;;;;1.67;0.65;;;;;;;-148.56;100.00;61375.16;4987261;28;20043;-28
2021/05/07 07:08:30;;;;;;;2.05;0.40;;;;;;;-148.56;100.00;61375.16;4981432;28;20056;-29
2021/05/07 07:11:54;;;;;;;2.88;0.63;;;;;;;-148.56;100.00;61375.16;4949454;28;20041;-32
2021/05/07 07:15:18;;;;;;;1.13;0.47;;;;;;;-148.56;100.00;61375.16;4957433;28;20022;-28
2021/05/07 07:18:42;;;;;;;1.77;0.63;;;;;;;-148.56;100.00;61375.16;4955749;28;20026;-28
2021/05/07 07:22:06;;;;;;;1.33;0.73;;;;;;;-148.56;100.00;61375.16;4954487;28;20130;-27
2021/05/07 07:25:30;;;;;;;1.92;0.68;;;;;;;-148.56;100.00;61375.16;4956322;28;20034;-32
2021/05/07 07:28:54;;;;;;;1.70;0.73;;;;;;;-148.56;100.00;61375.16;4958769;28;20101;-29
2021/05/07 07:32:19;;;;;;;5.07;0.63;;;;;;;-148.56;100.00;61375.16;4963931;28;20046;-27
2021/05/07 07:35:43;;;;;;;4.97;0.70;;;;;;;-148.56;100.00;61375.16;4978179;28;20033;-27
2021/05/07 07:39:07;;;;;;;1.67;0.52;;;;;;;-148.56;100.00;61375.16;4979857;28;20156;-25
2021/05/07 07:42:31;;;;;;;0.70;0.40;;;;;;;-148.56;100.00;61375.16;4963777;28;20041;-33
2021/05/07 07:45:55;;;;;;;1.67;0.52;;;;;;;-148.56;100.00;61375.16;4978366;28;20038;-29
2021/05/07 07:49:19;;;;;;;2.00;0.70;;;;;;;-148.56;100.00;61375.16;4978998;28;21074;-28
2021/05/07 07:52:42;;;;;;;1.73;0.63;;;;;;;-148.56;100.00;61375.16;4978733;28;20037;-28
2021/05/07 07:56:07;;;;;;;3.85;0.70;;;;;;;-148.56;100.00;61375.16;4977080;28;20040;-29
2021/05/07 07:59:33;;;;;;;1.10;0.50;;;;;;;-148.56;100.00;61375.16;4979180;28;20609;-28
2021/05/07 08:02:56;;;;;;;2.40;0.60;;;;;;;-148.56;100.00;61375.16;4977399;28;20052;-30
2021/05/07 08:06:20;;;;;;;0.43;0.30;;;;;;;-148.56;100.00;61375.16;4975420;28;20064;-28
2021/05/07 08:09:44;;;;;;;2.17;0.70;;;;;;;-148.56;100.00;61375.16;4984157;28;20059;-29
2021/05/07 08:13:08;;;;;;;1.42;0.55;;;;;;;-148.56;100.00;61375.16;4978865;28;20176;-29
2021/05/07 08:16:32;;;;;;;1.17;0.63;;;;;;;-148.56;100.00;61375.16;4979393;28;20312;-27
2021/05/07 08:19:59;;;;;;;1.52;0.60;;;;;;;-148.56;100.00;61375.16;4978436;28;20141;-27
2021/05/07 08:23:23;;;;;;;1.17;0.55;;;;;;;-148.56;100.00;61375.16;4962461;28;20044;-31
2021/05/07 08:26:47;;;;;;;1.20;0.63;;;;;;;-148.56;100.00;61375.16;4977811;28;20028;-28
2021/05/07 08:30:11;;;;;;;0.77;0.55;;;;;;;-148.56;100.00;61375.16;4975261;28;20091;-31
2021/05/07 08:33:35;;;;;;;3.25;0.57;;;;;;;-148.56;100.00;61375.16;4995695;28;20042;-29
2021/05/07 08:36:59;;;;;;;1.63;0.70;;;;;;;-148.56;100.00;61375.16;5000708;28;20025;-29
2021/05/07 08:40:22;;;;;;;1.35;0.70;;;;;;;-148.56;100.00;61375.16;4957428;28;20573;-27
2021/05/07 08:43:47;;;;;;;11.40;2.20;;;;;;;-148.56;100.00;61375.16;5000810;28;20328;-26
2021/05/07 08:47:11;;;;;;;6.32;2.72;;;;;;;-148.56;100.00;61375.16;4997420;28;20164;-28
2021/05/07 08:50:35;;;;;;;7.18;2.00;;;;;;;-148.56;100.00;61375.16;4990837;28;20026;-30
2021/05/07 08:53:59;;;;;;;3.72;1.85;;;;;;;-148.56;100.00;61375.16;4999901;28;20033;-32
2021/05/07 08:57:23;;;;;;;3.80;1.60;;;;;;;-148.56;100.00;61375.16;5010448;28;20648;-33
2021/05/07 09:00:48;;;;;;;4.72;1.15;;;;;;;-148.56;100.00;61375.16;5005495;28;20692;-29
2021/05/07 09:04:12;;;;;;;1.75;1.10;;;;;;;-148.56;100.00;61375.16;5009407;28;20073;-27
2021/05/07 09:07:52;;;;;;;3.20;1.20;;;;;;;-148.56;100.00;61375.16;5007174;28;20075;-32
2021/05/07 09:11:16;;;;;;;4.97;1.23;;;;;;;-148.56;100.00;61375.16;4987670;28;20021;-31
2021/05/07 09:14:45;;;;;;;4.15;1.25;;;;;;;-148.56;100.00;61375.16;5011970;28;20083;-30
2021/05/07 09:18:10;;;;;;;4.88;1.20;;;;;;;-148.56;100.00;61375.16;5002546;28;20021;-32
2021/05/07 09:21:41;;;;;;;2.70;1.20;;;;;;;-148.56;100.00;61375.16;5005995;28;20123;-30
2021/05/07 09:25:06;;;;;;;4.05;1.20;;;;;;;-148.56;100.00;61375.16;5015651;28;20037;-30
2021/05/07 09:28:30;;;;;;;5.13;1.20;;;;;;;-148.56;100.00;61375.16;5005142;28;20033;-31
2021/05/07 09:31:58;;;;;;;2.05;1.30;;;;;;;-148.56;100.00;61375.16;4987756;28;20363;-28
2021/05/07 09:35:28;;;;;;;2.45;1.30;;;;;;;-148.56;100.00;61375.16;4998778;28;20024;-31
2021/05/07 09:38:59;;;;;;;4.45;1.05;;;;;;;-148.56;100.00;61375.16;5006886;28;20664;-30
2021/05/07 09:42:26;;;;;;;7.10;1.35;;;;;;;-148.56;100.00;61375.16;5010391;28;20160;-29
2021/05/07 09:45:50;;;;;;;3.83;1.33;;;;;;;-148.56;100.00;61375.16;5011523;28;20021;-31
2021/05/07 09:49:22;;;;;;;3.42;1.17;;;;;;;-148.56;100.00;61375.16;5008772;28;20037;-30
2021/05/07 09:52:50;;;;;;;3.00;1.40;;;;;;;-148.56;100.00;61375.16;4998010;28;20092;-29
2021/05/07 09:56:15;;;;;;;2.70;1.15;;;;;;;-148.56;100.00;61375.16;5003286;28;23154;-29
2021/05/07 09:59:39;;;;;;;5.03;1.40;;;;;;;-148.56;100.00;61375.16;4989140;28;20053;-27
2021/05/07 10:03:03;;;;;;;2.08;1.05;;;;;;;-148.56;100.00;61375.16;4997080;28;20049;-28
2021/05/07 10:06:28;;;;;;;3.45;1.17;;;;;;;-148.56;100.00;61375.16;5007809;28;20037;-28
2021/05/07 10:09:52;;;;;;;4.03;1.23;;;;;;;-148.56;100.00;61375.16;4985270;28;20775;-29
2021/05/07 10:13:16;;;;;;;6.50;1.00;;;;;;;-148.56;100.00;61375.16;4986183;28;20261;-30
2021/05/07 10:16:40;;;;;;;2.90;0.98;;;;;;;-148.56;100.00;61375.16;4980344;28;20119;-28
2021/05/07 10:20:05;;;;;;;2.28;1.10;;;;;;;-148.56;100.00;61375.16;4995336;28;22191;-28
2021/05/07 10:23:36;;;;;;;2.45;1.05;;;;;;;-148.56;100.00;61375.16;5006676;28;20924;-32
2021/05/07 10:27:01;;;;;;;2.92;1.00;;;;;;;-148.56;100.00;61375.16;5006543;28;20140;-31
2021/05/07 10:30:29;;;;;;;5.15;1.02;;;;;;;-148.56;100.00;61375.16;5011132;28;20044;-33
2021/05/07 10:33:58;;;;;;;8.88;1.40;;;;;;;-148.56;100.00;61375.16;5017900;28;20398;-31
2021/05/07 10:37:50;;;;;;;4.90;1.00;;;;;;;-148.56;100.00;61375.16;5004801;28;20108;-29
2021/05/07 10:41:21;;;;;;;1.75;0.90;;;;;;;-148.56;100.00;61375.16;5017443;28;20500;-29
2021/05/07 10:44:45;;;;;;;1.50;0.95;;;;;;;-148.56;100.00;61375.16;5018355;28;20129;-31
2021/05/07 10:48:17;;;;;;;3.05;1.10;;;;;;;-148.56;100.00;61375.16;5012171;28;20029;-29
2021/05/07 10:51:44;;;;;;;3.50;0.90;;;;;;;-148.56;100.00;61375.16;5016255;28;20193;-31
2021/05/07 10:55:12;;;;;;;2.38;1.23;;;;;;;-148.56;100.00;61375.16;5003942;28;20030;-29
2021/05/07 10:58:36;;;;;;;1.52;0.80;;;;;;;-148.56;100.00;61375.16;4993984;28;20492;-30
2021/05/07 11:02:12;;;;;;;2.45;0.85;;;;;;;-148.56;100.00;61375.16;5005740;28;20065;-30
2021/05/07 11:05:40;;;;;;;1.35;0.90;;;;;;;-148.56;100.00;61375.16;4986178;28;20033;-30
2021/05/07 11:09:20;;;;;;;3.95;1.00;;;;;;;-148.56;100.00;61375.16;5007259;28;20033;-31
2021/05/07 11:12:44;;;;;;;1.52;0.75;;;;;;;-148.56;100.00;61375.16;4999874;28;20035;-31
2021/05/07 11:16:12;;;;;;;2.65;1.10;;;;;;;-148.56;100.00;61375.16;5005761;28;20114;-30
2021/05/07 11:19:36;;;;;;;1.98;0.77;;;;;;;-148.56;100.00;61375.16;5005023;28;20053;-31
2021/05/07 11:23:04;;;;;;;1.15;0.75;;;;;;;-148.56;100.00;61375.16;4987130;28;20056;-29
2021/05/07 11:26:37;;;;;;;4.05;0.90;;;;;;;-148.56;100.00;61375.16;4991532;28;20584;-31
2021/05/07 11:30:01;;;;;;;1.98;0.80;;;;;;;-148.56;100.00;61375.16;5007468;28;20025;-31
2021/05/07 11:33:26;;;;;;;8.38;0.80;;;;;;;-148.56;100.00;61375.16;5011807;28;20127;-30
2021/05/07 11:37:05;;;;;;;3.45;0.90;;;;;;;-148.56;100.00;61375.16;5008798;28;20016;-31
2021/05/07 11:40:36;;;;;;;3.55;0.98;;;;;;;-148.56;100.00;61375.16;5010144;28;20627;-32
2021/05/07 11:44:08;;;;;;;3.90;0.80;;;;;;;-148.56;100.00;61375.16;5002425;28;20026;-30
2021/05/07 11:47:32;;;;;;;2.63;1.10;;;;;;;-148.56;100.00;61375.16;5009952;28;20064;-32
2021/05/07 11:50:56;;;;;;;8.45;1.60;;;;;;;-148.56;100.00;61375.16;4994350;28;20044;-28
2021/05/07 11:54:20;;;;;;;6.78;1.10;;;;;;;-148.56;100.00;61375.16;5011659;28;20040;-31
2021/05/07 11:57:44;;;;;;;4.68;1.40;;;;;;;-148.56;100.00;61375.16;5013689;28;20106;-28
2021/05/07 12:01:10;;;;;;;11.18;1.50;;;;;;;-148.56;100.00;61375.16;4994951;28;20049;-30
2021/05/07 12:04:43;;;;;;;4.25;1.63;;;;;;;-148.56;100.00;61375.16;5009402;28;20041;-28
2021/05/07 12:08:25;;;;;;;9.63;5.75;;;;;;;-148.56;100.00;61375.16;5010875;28;20703;-28
2021/05/07 12:11:55;;;;;;;36.90;22.33;;;;;;;-148.56;100.00;61375.16;5007764;28;20025;-29
2021/05/07 12:15:18;;;;;;;66.88;39.72;;;;;;;-148.56;100.00;61375.16;5015766;28;20104;-30
2021/05/07 12:18:46;;;;;;;80.05;53.90;;;;;;;-148.56;100.00;61375.16;5016336;28;20033;-29
2021/05/07 12:22:20;;;;;;;110.97;68.13;;;;;;;-148.56;100.00;61375.16;5010034;28;20108;-27
2021/05/07 12:25:48;;;;;;;109.57;68.30;;;;;;;-148.56;100.00;61375.16;5013655;28;20638;-29
2021/05/07 12:29:12;;;;;;;121.72;70.25;;;;;;;-148.56;100.00;61375.16;5008303;28;20033;-31
2021/05/07 12:32:36;;;;;;;116.65;69.22;;;;;;;-148.56;100.00;61375.16;5009007;28;20057;-29
2021/05/07 12:36:00;;;;;;;53.33;30.90;;;;;;;-148.56;100.00;61375.16;5010428;28;20083;-32
2021/05/07 12:39:28;;;;;;;35.33;22.75;;;;;;;-148.56;100.00;61375.16;5008274;28;20033;-31
2021/05/07 12:42:52;;;;;;;25.40;16.23;;;;;;;-148.56;100.00;61375.16;5008553;28;20032;-31
2021/05/07 12:46:18;;;;;;;19.40;11.18;;;;;;;-148.56;100.00;61375.16;5009633;28;20025;-29
2021/05/07 12:49:49;;;;;;;13.20;7.80;;;;;;;-148.56;100.00;61375.16;5015012;28;20083;-32
2021/05/07 12:53:17;;;;;;;8.13;5.90;;;;;;;-148.56;100.00;61375.16;5008221;28;20038;-29
2021/05/07 12:56:43;;;;;;;10.35;5.72;;;;;;;-148.56;100.00;61375.16;5009169;28;20612;-29
2021/05/07 13:00:08;;;;;;;13.68;7.35;;;;;;;-148.56;100.00;61375.16;5006939;28;20033;-28
2021/05/07 13:03:32;;;;;;;12.88;7.30;;;;;;;-148.56;100.00;61375.16;5007171;28;20038;-29
2021/05/07 13:06:55;;;;;;;11.65;7.07;;;;;;;-148.56;100.00;61375.16;5006583;28;20096;-28
2021/05/07 13:10:20;;;;;;;12.75;7.68;;;;;;;-148.56;100.00;61375.16;5005995;28;20901;-31
2021/05/07 13:13:44;;;;;;;12.57;7.25;;;;;;;-148.56;100.00;61375.16;5007101;28;20044;-30
2021/05/07 13:17:14;;;;;;;10.93;7.75;;;;;;;-148.56;100.00;61375.16;4990348;28;20029;-29
2021/05/07 13:20:38;;;;;;;12.77;7.53;;;;;;;-148.56;100.00;61375.16;5003976;28;20840;-27
2021/05/07 13:24:02;;;;;;;12.38;6.93;;;;;;;-148.56;100.00;61375.16;5007294;28;20354;-30
2021/05/07 13:27:26;;;;;;;11.95;8.00;;;;;;;-148.56;100.00;61375.16;5008527;28;20449;-28
2021/05/07 13:30:50;;;;;;;17.52;9.68;;;;;;;-148.56;100.00;61375.16;5007022;28;20029;-27
2021/05/07 13:34:14;;;;;;;18.70;10.52;;;;;;;-148.56;100.00;61375.16;5009074;28;20047;-28
2021/05/07 13:37:40;;;;;;;13.85;8.55;;;;;;;-148.56;100.00;61375.16;5000955;28;20098;-28
2021/05/07 13:41:04;;;;;;;15.07;9.10;;;;;;;-148.56;100.00;61375.16;5007244;28;20041;-28
2021/05/07 13:44:30;;;;;;;10.85;7.95;;;;;;;-148.56;100.00;61375.16;5008062;28;20017;-26
2021/05/07 13:47:54;;;;;;;12.00;7.07;;;;;;;-148.56;100.00;61375.16;5010007;28;20037;-31
2021/05/07 13:51:18;;;;;;;11.20;7.65;;;;;;;-148.56;100.00;61375.16;5004616;28;20022;-27
2021/05/07 13:54:42;;;;;;;10.95;7.13;;;;;;;-148.56;100.00;61375.16;5002427;28;20033;-29
2021/05/07 13:58:06;;;;;;;9.57;6.95;;;;;;;-148.56;100.00;61375.16;5004517;28;20602;-32
2021/05/07 14:01:30;;;;;;;14.38;6.50;;;;;;;-148.56;100.00;61375.16;5008815;28;22007;-28
2021/05/07 14:04:54;;;;;;;12.50;6.35;;;;;;;-148.56;100.00;61375.16;5011925;28;20782;-29
2021/05/07 14:08:18;;;;;;;11.02;6.55;;;;;;;-148.56;100.00;61375.16;5017768;28;20029;-29
2021/05/07 14:11:42;;;;;;;7.97;5.43;;;;;;;-148.56;100.00;61375.16;5016441;28;20440;-31
2021/05/07 14:15:07;;;;;;;11.50;6.05;;;;;;;-148.56;100.00;61375.16;5003414;28;20033;-27
2021/05/07 14:18:31;;;;;;;8.52;5.57;;;;;;;-148.56;100.00;61375.16;5016263;28;20041;-28
2021/05/07 14:21:55;;;;;;;10.85;5.50;;;;;;;-148.56;100.00;61375.16;5012847;28;20112;-26
2021/05/07 14:25:19;;;;;;;9.23;5.13;;;;;;;-148.56;100.00;61375.16;5008602;28;20038;-30
2021/05/07 14:28:43;;;;;;;6.78;4.68;;;;;;;-148.56;100.00;61375.16;4999556;28;20106;-30
2021/05/07 14:32:06;;;;;;;7.15;4.43;;;;;;;-148.56;100.00;61375.16;5007971;28;20120;-29
2021/05/07 14:35:30;;;;;;;9.15;4.18;;;;;;;-148.56;100.00;61375.16;5001497;28;20206;-32
2021/05/07 14:38:54;;;;;;;10.10;4.05;;;;;;;-148.56;100.00;61375.16;4991090;28;20050;-29
2021/05/07 14:42:18;;;;;;;6.30;4.05;;;;;;;-148.56;100.00;61375.16;5000049;28;20508;-31
2021/05/07 14:45:42;;;;;;;9.07;4.82;;;;;;;-148.56;100.00;61375.16;4999263;28;20124;-35
2021/05/07 14:49:06;;;;;;;11.30;4.30;;;;;;;-148.56;100.00;61375.16;4984844;28;20049;-30
2021/05/07 14:52:30;;;;;;;15.93;4.68;;;;;;;-148.56;100.00;61375.16;4958766;28;20120;-32
2021/05/07 14:56:53;;;;;;;6.50;4.22;;;;;;;27.57;26.71;96608.19;5075932;27;20379;-31
2021/05/07 14:59:18;;;;;;;12.32;4.15;;;;;;;27.65;26.63;96608.59;5065224;28;20028;-30
2021/05/07 15:01:44;;;;;;;10.57;3.90;;;;;;;27.75;26.90;96611.50;5053179;27;20893;-32
2021/05/07 15:04:11;;;;;;;7.60;4.13;;;;;;;27.85;26.70;96617.03;5045379;28;20122;-31
2021/05/07 15:06:36;;;;;;;5.80;4.00;;;;;;;27.94;26.24;96614.72;5043262;28;20028;-30
2021/05/07 15:09:02;;;;;;;11.95;4.63;;;;;;;28.03;26.59;96616.75;5039578;28;20221;-31
2021/05/07 15:11:27;;;;;;;8.82;3.85;;;;;;;28.10;26.53;96622.47;5042246;28;20039;-33
2021/05/07 15:13:53;;;;;;;7.57;3.80;;;;;;;28.16;26.34;96620.28;5038139;28;20629;-32
2021/05/07 15:16:19;;;;;;;8.23;3.95;;;;;;;28.23;26.30;96619.88;5043161;28;20029;-29
2021/05/07 15:18:44;;;;;;;7.85;3.78;;;;;;;28.29;26.46;96614.22;5047551;28;20028;-28
2021/05/07 15:21:09;;;;;;;7.82;3.90;;;;;;;28.34;26.35;96622.66;5039979;28;20723;-29
2021/05/07 15:23:35;;;;;;;6.57;3.65;;;;;;;28.37;26.35;96622.47;5048549;28;20036;-31